createdAt,value
2024-02-08T00:01:28.675Z,98074.03
2024-02-08T00:03:55.864Z,98065.34
2024-02-08T00:06:22.883Z,98059.63
2024-02-08T00:08:54.724Z,98069.09
2024-02-08T00:11:21.914Z,98072.63
2024-02-08T00:13:49.872Z,98060.56
2024-02-08T00:16:16.940Z,98064.31
2024-02-08T00:18:45.674Z,98061.75
2024-02-08T00:21:13.944Z,98066.88
2024-02-08T00:23:40.935Z,98063.13
2024-02-08T00:26:09.497Z,98071.16
2024-02-08T00:28:36.561Z,98066.63
2024-02-08T00:31:05.872Z,98060.91
2024-02-08T00:33:35.082Z,98061.75
2024-02-08T00:36:02.409Z,98062.72
2024-02-08T00:38:32.722Z,98050.72
2024-02-08T00:41:00.330Z,98052.69
2024-02-08T00:43:29.206Z,98053.28
2024-02-08T00:45:56.327Z,98040.69
2024-02-08T00:48:23.711Z,98050.94
2024-02-08T00:50:50.893Z,98052.69
2024-02-08T00:53:17.899Z,98048.38
2024-02-08T00:55:45.419Z,98055.03
2024-02-08T00:58:16.701Z,98053.50
2024-02-08T01:00:45.301Z,98060.56
2024-02-08T01:03:14.841Z,98060.56
2024-02-08T01:05:43.121Z,98046.81
2024-02-08T01:08:10.486Z,98042.91
2024-02-08T01:10:37.561Z,98046.50
2024-02-08T01:13:05.837Z,98052.25
2024-02-08T01:15:32.972Z,98041.06
2024-02-08T01:18:04.144Z,98053.69
2024-02-08T01:20:32.771Z,98050.16
2024-02-08T01:23:00.958Z,98052.53
2024-02-08T01:25:28.067Z,98054.06
2024-02-08T01:27:57.112Z,98060.56
2024-02-08T01:30:25.669Z,98047.19
2024-02-08T01:32:54.612Z,98050.56
2024-02-08T01:35:23.825Z,98042.06
2024-02-08T01:37:51.206Z,98052.88
2024-02-08T01:40:18.560Z,98056.03
2024-02-08T01:42:45.945Z,98049.34
2024-02-08T01:45:35.065Z,98041.88
2024-02-08T01:48:04.562Z,98047.59
2024-02-08T01:50:37.048Z,98047.81
2024-02-08T01:53:06.639Z,98044.44
2024-02-08T01:55:35.446Z,98043.88
2024-02-08T01:58:06.672Z,98043.09
2024-02-08T02:00:37.831Z,98039.19
2024-02-08T02:03:11.537Z,98042.72
2024-02-08T02:05:44.384Z,98048.81
2024-02-08T02:08:12.298Z,98046.25
2024-02-08T02:10:40.382Z,98046.25
2024-02-08T02:13:10.614Z,98041.56
2024-02-08T02:15:39.285Z,98046.91
2024-02-08T02:18:11.407Z,98038.81
2024-02-08T02:20:40.488Z,98044.94
2024-02-08T02:23:11.038Z,98042.59
2024-02-08T02:25:42.310Z,98046.91
2024-02-08T02:28:11.600Z,98051.81
2024-02-08T02:30:39.155Z,98052.03
2024-02-08T02:33:07.409Z,98053.41
2024-02-08T02:35:35.565Z,98063.25
2024-02-08T02:38:04.553Z,98060.94
2024-02-08T02:40:35.380Z,98052.25
2024-02-08T02:43:11.130Z,98050.69
2024-02-08T02:45:38.355Z,98063.28
2024-02-08T02:48:06.171Z,98061.53
2024-02-08T02:50:35.910Z,98069.97
2024-02-08T02:53:03.135Z,98067.41
2024-02-08T02:55:30.220Z,98073.91
2024-02-08T02:57:58.995Z,98068.38
2024-02-08T03:00:26.358Z,98070.72
2024-02-08T03:02:55.988Z,98067.22
2024-02-08T03:05:23.114Z,98069.75
2024-02-08T03:07:50.745Z,98068.97
2024-02-08T03:10:20.830Z,98067.97
2024-02-08T03:12:48.854Z,98079.78
2024-02-08T03:15:18.279Z,98074.69
2024-02-08T03:17:47.170Z,98078.00
2024-02-08T03:20:31.297Z,98073.88
2024-02-08T03:22:58.806Z,98075.84
2024-02-08T03:25:26.413Z,98085.72
2024-02-08T03:27:53.968Z,98088.88
2024-02-08T03:30:32.472Z,98083.38
2024-02-08T03:33:00.281Z,98081.44
2024-02-08T03:35:31.164Z,98080.84
2024-02-08T03:38:02.130Z,98082.63
2024-02-08T03:40:34.077Z,98082.81
2024-02-08T03:43:01.934Z,98078.31
2024-02-08T03:45:31.089Z,98076.16
2024-02-08T03:47:59.665Z,98076.53
2024-02-08T03:50:35.931Z,98072.03
2024-02-08T03:53:06.122Z,98078.16
2024-02-08T03:55:33.740Z,98077.16
2024-02-08T03:58:01.809Z,98090.94
2024-02-08T04:00:30.372Z,98082.28
2024-02-08T04:02:58.510Z,98084.22
2024-02-08T04:06:00.924Z,98079.34
2024-02-08T04:08:28.401Z,98082.50
2024-02-08T04:10:55.986Z,98081.91
2024-02-08T04:13:41.716Z,98073.84
2024-02-08T04:16:28.844Z,98075.41
2024-02-08T04:19:15.196Z,98083.84
2024-02-08T04:22:00.694Z,98069.28
2024-02-08T04:24:45.920Z,98072.44
2024-02-08T04:27:31.394Z,98071.44
2024-02-08T04:30:16.691Z,98075.97
2024-02-08T04:33:06.153Z,98069.28
2024-02-08T04:35:51.532Z,98068.47
2024-02-08T04:38:36.848Z,98085.78
2024-02-08T04:41:22.776Z,98081.06
2024-02-08T04:44:08.594Z,98078.31
2024-02-08T04:46:54.104Z,98078.50
2024-02-08T04:49:41.241Z,98072.59
2024-02-08T04:52:26.947Z,98074.53
2024-02-08T04:54:53.953Z,98084.94
2024-02-08T04:57:20.913Z,98083.38
2024-02-08T04:59:49.307Z,98090.63
2024-02-08T05:02:17.838Z,98091.41
2024-02-08T05:04:50.257Z,98095.50
2024-02-08T05:07:17.615Z,98094.09
2024-02-08T05:09:44.795Z,98098.63
2024-02-08T05:12:12.641Z,98095.28
2024-02-08T05:14:40.157Z,98100.38
2024-02-08T05:17:10.676Z,98097.06
2024-02-08T05:19:44.998Z,98097.06
2024-02-08T05:22:14.932Z,98098.81
2024-02-08T05:24:42.536Z,98092.53
2024-02-08T05:27:12.555Z,98101.31
2024-02-08T05:29:42.429Z,98097.97
2024-02-08T05:32:11.624Z,98101.44
2024-02-08T05:34:40.742Z,98111.44
2024-02-08T05:37:08.130Z,98112.78
2024-02-08T05:39:37.627Z,98109.44
2024-02-08T05:42:06.537Z,98106.50
2024-02-08T05:44:34.263Z,98114.13
2024-02-08T05:47:10.523Z,98111.78
2024-02-08T05:49:39.221Z,98114.50
2024-02-08T05:52:08.105Z,98121.19
2024-02-08T05:54:38.657Z,98119.06
2024-02-08T05:57:08.548Z,98111.97
2024-02-08T05:59:39.155Z,98118.47
2024-02-08T06:02:16.869Z,98122.22
2024-02-08T06:04:52.242Z,98114.97
2024-02-08T06:07:21.639Z,98116.91
2024-02-08T06:09:56.623Z,98121.88
2024-02-08T06:12:45.111Z,98122.31
2024-02-08T06:15:22.674Z,98123.53
2024-02-08T06:18:00.016Z,98115.94
2024-02-08T06:20:44.985Z,98126.81
2024-02-08T06:23:19.473Z,98125.47
2024-02-08T06:26:10.479Z,98123.13
2024-02-08T06:29:06.737Z,98135.72
2024-02-08T06:31:42.148Z,98130.59
2024-02-08T06:34:29.577Z,98136.09
2024-02-08T06:37:00.437Z,98133.16
2024-02-08T06:39:36.653Z,98138.28
2024-02-08T06:42:24.585Z,98128.88
2024-02-08T06:45:14.331Z,98125.13
2024-02-08T06:48:16.283Z,98134.78
2024-02-08T06:51:02.562Z,98138.88
2024-02-08T06:53:48.054Z,98144.19
2024-02-08T06:56:33.795Z,98136.13
2024-02-08T06:59:20.504Z,98141.28
2024-02-08T07:02:05.994Z,98138.88
2024-02-08T07:04:51.541Z,98139.88
2024-02-08T07:07:37.279Z,98132.38
2024-02-08T07:10:23.117Z,98131.56
2024-02-08T07:13:08.501Z,98131.16
2024-02-08T07:15:55.452Z,98126.81
2024-02-08T07:18:49.429Z,98127.19
2024-02-08T07:21:40.777Z,98130.84
2024-02-08T07:24:26.616Z,98129.59
2024-02-08T07:27:11.990Z,98131.59
2024-02-08T07:29:59.447Z,98127.69
2024-02-08T07:32:46.745Z,98126.94
2024-02-08T07:35:32.430Z,98123.88
2024-02-08T07:38:02.585Z,98124.31
2024-02-08T07:40:36.436Z,98118.06
2024-02-08T07:43:16.856Z,98124.03
2024-02-08T07:45:45.081Z,98122.44
2024-02-08T07:48:15.112Z,98119.91
2024-02-08T07:50:49.115Z,98121.53
2024-02-08T07:53:35.565Z,98121.72
2024-02-08T07:56:24.807Z,98128.38
2024-02-08T07:58:54.402Z,98131.75
2024-02-08T08:01:21.945Z,98119.63
2024-02-08T08:03:51.107Z,98118.34
2024-02-08T08:06:18.550Z,98129.28
2024-02-08T08:08:56.198Z,98131.34
2024-02-08T08:11:27.141Z,98128.31
2024-02-08T08:13:56.913Z,98123.03
2024-02-08T08:16:31.238Z,98129.34
2024-02-08T08:19:09.215Z,98120.22
2024-02-08T08:21:55.953Z,98127.16
2024-02-08T08:24:29.609Z,98116.16
2024-02-08T08:27:18.530Z,98115.03
2024-02-08T08:29:45.666Z,98120.03
2024-02-08T08:32:31.360Z,98124.25
2024-02-08T08:35:19.626Z,98112.44
2024-02-08T08:37:46.907Z,98119.09
2024-02-08T08:40:33.586Z,98107.72
2024-02-08T08:43:00.726Z,98117.56
2024-02-08T08:45:30.563Z,98116.97
2024-02-08T08:48:02.513Z,98114.25
2024-02-08T08:50:32.477Z,98112.03
2024-02-08T08:53:08.765Z,98103.53
2024-02-08T08:55:40.850Z,98100.31
2024-02-08T08:58:13.712Z,98106.94
2024-02-08T09:00:47.522Z,98103.81
2024-02-08T09:03:28.760Z,98102.75
2024-02-08T09:06:00.428Z,98107.13
2024-02-08T09:08:35.786Z,98106.06
2024-02-08T09:11:07.657Z,98102.31
2024-02-08T09:13:39.153Z,98093.56
2024-02-08T09:16:25.739Z,98093.75
2024-02-08T09:19:00.068Z,98104.31
2024-02-08T09:21:33.579Z,98093.28
2024-02-08T09:24:04.645Z,98099.41
2024-02-08T09:26:49.875Z,98081.81
2024-02-08T09:29:28.465Z,98089.66
2024-02-08T09:32:00.872Z,98079.66
2024-02-08T09:34:42.505Z,98079.91
2024-02-08T09:37:12.070Z,98076.03
2024-02-08T09:40:00.457Z,98073.28
2024-02-08T09:42:29.216Z,98067.22
2024-02-08T09:45:14.918Z,98070.16
2024-02-08T09:47:53.151Z,98075.00
2024-02-08T09:50:32.481Z,98063.25
2024-02-08T09:53:08.740Z,98067.41
2024-02-08T09:55:40.138Z,98060.69
2024-02-08T09:58:11.830Z,98062.91
2024-02-08T10:00:58.992Z,98060.09
2024-02-08T10:03:33.577Z,98051.44
2024-02-08T10:06:13.781Z,98046.19
2024-02-08T10:08:58.000Z,98037.44
2024-02-08T10:11:25.578Z,98042.16
2024-02-08T10:14:25.152Z,98036.84
2024-02-08T10:16:54.907Z,98045.00
2024-02-08T10:19:27.620Z,98034.44
2024-02-08T10:21:58.573Z,98030.06
2024-02-08T10:24:45.521Z,98026.50
2024-02-08T10:27:20.516Z,98029.09
2024-02-08T10:29:54.362Z,98013.09
2024-02-08T10:32:21.556Z,98022.00
2024-02-08T10:34:53.722Z,98007.66
2024-02-08T10:37:39.073Z,98012.00
2024-02-08T10:40:34.739Z,98005.09
2024-02-08T10:43:18.028Z,98002.47
2024-02-08T10:45:51.316Z,97995.53
2024-02-08T10:48:18.974Z,97992.69
2024-02-08T10:50:51.137Z,97996.56
2024-02-08T10:53:38.651Z,97987.50
2024-02-08T10:56:16.090Z,97984.56
2024-02-08T10:59:04.520Z,97979.72
2024-02-08T11:01:55.366Z,97984.16
2024-02-08T11:04:30.053Z,97976.00
2024-02-08T11:07:09.913Z,97978.84
2024-02-08T11:09:37.685Z,97976.91
2024-02-08T11:12:10.525Z,97975.59
2024-02-08T11:14:42.656Z,97973.84
2024-02-08T11:17:21.653Z,97974.91
2024-02-08T11:19:51.088Z,97960.59
2024-02-08T11:22:36.282Z,97963.47
2024-02-08T11:25:20.270Z,97958.63
2024-02-08T11:27:53.644Z,97960.19
2024-02-08T11:30:34.639Z,97951.28
2024-02-08T11:33:03.812Z,97952.78
2024-02-08T11:35:32.172Z,97953.03
2024-02-08T11:38:10.801Z,97947.59
2024-02-08T11:40:38.107Z,97953.31
2024-02-08T11:43:09.204Z,97937.56
2024-02-08T11:45:37.304Z,97945.84
2024-02-08T11:48:10.277Z,97949.03
2024-02-08T11:50:41.192Z,97948.09
2024-02-08T11:53:08.243Z,97948.19
2024-02-08T11:55:35.339Z,97938.34
2024-02-08T11:58:08.639Z,97944.16
2024-02-08T12:00:50.230Z,97940.88
2024-02-08T12:03:18.062Z,97932.50
2024-02-08T12:05:54.383Z,97936.75
2024-02-08T12:08:33.811Z,97938.59
2024-02-08T12:11:04.963Z,97940.00
2024-02-08T12:13:40.787Z,97936.13
2024-02-08T12:16:08.395Z,97932.31
2024-02-08T12:18:37.116Z,97924.72
2024-02-08T12:21:12.055Z,97916.66
2024-02-08T12:23:41.933Z,97910.41
2024-02-08T12:26:12.305Z,97908.03
2024-02-08T12:28:44.304Z,97902.41
2024-02-08T12:31:20.060Z,97907.69
2024-02-08T12:33:54.812Z,97904.00
2024-02-08T12:36:26.502Z,97904.72
2024-02-08T12:38:57.334Z,97894.19
2024-02-08T12:41:25.433Z,97894.94
2024-02-08T12:43:54.896Z,97896.47
2024-02-08T12:46:22.806Z,97887.75
2024-02-08T12:48:50.517Z,97886.72
2024-02-08T12:51:19.286Z,97888.88
2024-02-08T12:53:46.687Z,97888.97
2024-02-08T12:56:15.973Z,97887.59
2024-02-08T12:58:44.145Z,97882.66
2024-02-08T13:01:16.408Z,97894.25
2024-02-08T13:03:43.791Z,97888.19
2024-02-08T13:06:15.736Z,97883.88
2024-02-08T13:08:47.015Z,97887.09
2024-02-08T13:11:22.158Z,97885.25
2024-02-08T13:13:49.694Z,97876.50
2024-02-08T13:16:18.413Z,97880.91
2024-02-08T13:18:54.175Z,97879.75
2024-02-08T13:21:26.278Z,97885.84
2024-02-08T13:23:57.031Z,97883.75
2024-02-08T13:26:33.032Z,97884.25
2024-02-08T13:29:03.970Z,97887.31
2024-02-08T13:31:32.489Z,97889.34
2024-02-08T13:34:02.509Z,97886.94
2024-02-08T13:36:29.972Z,97888.50
2024-02-08T13:38:57.081Z,97889.28
2024-02-08T13:41:24.288Z,97882.97
2024-02-08T13:43:52.883Z,97882.47
2024-02-08T13:46:20.372Z,97885.50
2024-02-08T13:48:50.629Z,97886.56
2024-02-08T13:51:18.044Z,97883.63
2024-02-08T13:53:46.611Z,97878.78
2024-02-08T13:56:15.024Z,97881.13
2024-02-08T13:58:42.438Z,97881.19
2024-02-08T14:01:09.763Z,97877.03
2024-02-08T14:03:37.163Z,97893.41
2024-02-08T14:06:10.902Z,97893.22
2024-02-08T14:08:44.263Z,97889.41
2024-02-08T14:11:17.744Z,97894.69
2024-02-08T14:13:45.854Z,97890.25
2024-02-08T14:16:17.613Z,97892.84
2024-02-08T14:18:50.915Z,97889.81
2024-02-08T14:21:29.030Z,97889.88
2024-02-08T14:24:02.502Z,97883.38
2024-02-08T14:26:44.278Z,97889.25
2024-02-08T14:29:11.487Z,97887.56
2024-02-08T14:31:40.906Z,97891.91
2024-02-08T14:34:11.278Z,97889.50
2024-02-08T14:36:48.319Z,97889.84
2024-02-08T14:39:28.979Z,97893.28
2024-02-08T14:41:57.222Z,97884.94
2024-02-08T14:44:33.099Z,97888.69
2024-02-08T14:47:00.501Z,97888.50
2024-02-08T14:49:30.581Z,97891.94
2024-02-08T14:52:04.509Z,97888.59
2024-02-08T14:54:32.724Z,97884.50
2024-02-08T14:57:06.406Z,97901.56
2024-02-08T15:00:06.942Z,97894.44
2024-02-08T15:02:33.952Z,97891.69
2024-02-08T15:05:02.638Z,97897.56
2024-02-08T15:07:52.639Z,97891.59
2024-02-08T15:10:23.059Z,97891.88
2024-02-08T15:12:57.394Z,97887.00
2024-02-08T15:15:32.512Z,97890.44
2024-02-08T15:18:13.206Z,97894.44
2024-02-08T15:20:57.427Z,97901.28
2024-02-08T15:23:33.693Z,97903.19
2024-02-08T15:26:14.460Z,97899.88
2024-02-08T15:28:46.925Z,97897.06
2024-02-08T15:31:23.220Z,97903.59
2024-02-08T15:34:09.603Z,97907.81
2024-02-08T15:36:51.801Z,97906.03
2024-02-08T15:39:37.242Z,97915.16
2024-02-08T15:42:18.831Z,97907.41
2024-02-08T15:44:54.041Z,97916.75
2024-02-08T15:47:22.182Z,97913.16
2024-02-08T15:49:56.461Z,97915.44
2024-02-08T15:52:29.944Z,97920.88
2024-02-08T15:54:59.669Z,97918.81
2024-02-08T15:57:31.500Z,97920.84
2024-02-08T16:00:01.366Z,97915.16
2024-02-08T16:02:36.042Z,97922.34
2024-02-08T16:05:16.179Z,97929.06
2024-02-08T16:07:44.267Z,97933.91
2024-02-08T16:10:25.779Z,97927.41
2024-02-08T16:13:06.596Z,97932.78
2024-02-08T16:15:53.099Z,97936.66
2024-02-08T16:18:27.924Z,97930.91
2024-02-08T16:21:00.332Z,97931.91
2024-02-08T16:23:45.241Z,97927.19
2024-02-08T16:26:14.361Z,97931.00
2024-02-08T16:28:51.321Z,97931.94
2024-02-08T16:31:19.355Z,97929.78
2024-02-08T16:33:55.553Z,97934.59
2024-02-08T16:36:30.775Z,97930.81
2024-02-08T16:39:08.032Z,97947.75
2024-02-08T16:41:49.345Z,97945.81
2024-02-08T16:44:17.944Z,97949.09
2024-02-08T16:46:55.095Z,97961.50
2024-02-08T16:49:29.120Z,97965.44
2024-02-08T16:51:57.195Z,97970.44
2024-02-08T16:54:32.991Z,97971.47
2024-02-08T16:57:05.241Z,97971.16
2024-02-08T16:59:46.225Z,97972.09
2024-02-08T17:02:28.118Z,97973.06
2024-02-08T17:05:17.819Z,97976.13
2024-02-08T17:07:45.334Z,97983.72
2024-02-08T17:10:23.914Z,97989.28
2024-02-08T17:13:01.231Z,97988.16
2024-02-08T17:15:28.670Z,97998.09
2024-02-08T17:18:07.192Z,97991.22
2024-02-08T17:20:56.252Z,97992.00
2024-02-08T17:23:42.824Z,97988.94
2024-02-08T17:26:38.903Z,97992.13
2024-02-08T17:29:21.254Z,97998.84
2024-02-08T17:31:49.400Z,97995.78
2024-02-08T17:34:24.085Z,97992.34
2024-02-08T17:36:55.586Z,97990.47
2024-02-08T17:39:26.509Z,97990.50
2024-02-08T17:41:58.354Z,97989.84
2024-02-08T17:44:31.346Z,97989.44
2024-02-08T17:47:01.554Z,97990.81
2024-02-08T17:49:31.236Z,97993.44
2024-02-08T17:52:00.999Z,97998.16
2024-02-08T17:54:33.173Z,97997.66
2024-02-08T17:57:03.680Z,98002.44
2024-02-08T17:59:32.702Z,98002.13
2024-02-08T18:02:03.353Z,98004.47
2024-02-08T18:04:31.406Z,98014.88
2024-02-08T18:07:10.238Z,98005.16
2024-02-08T18:09:43.675Z,98009.72
2024-02-08T18:12:22.890Z,98000.09
2024-02-08T18:14:52.539Z,98002.91
2024-02-08T18:17:26.160Z,98003.47
2024-02-08T18:19:53.727Z,98000.91
2024-02-08T18:22:30.220Z,98006.25
2024-02-08T18:24:59.548Z,98007.50
2024-02-08T18:27:33.667Z,98006.84
2024-02-08T18:30:06.185Z,97998.44
2024-02-08T18:32:36.075Z,97986.13
2024-02-08T18:35:06.368Z,97987.94
2024-02-08T18:37:36.023Z,97997.97
2024-02-08T18:40:09.496Z,98004.53
2024-02-08T18:42:39.876Z,97996.63
2024-02-08T18:45:17.683Z,97996.41
2024-02-08T18:47:45.786Z,97991.91
2024-02-08T18:50:14.295Z,97987.44
2024-02-08T18:52:43.487Z,97990.78
2024-02-08T18:55:11.321Z,97995.94
2024-02-08T18:57:38.716Z,97986.31
2024-02-08T19:00:14.998Z,97990.78
2024-02-08T19:02:42.487Z,97993.44
2024-02-08T19:05:10.852Z,98005.34
2024-02-08T19:07:38.185Z,97998.56
2024-02-08T19:10:08.405Z,98004.34
2024-02-08T19:12:38.302Z,98010.69
2024-02-08T19:15:07.928Z,98008.34
2024-02-08T19:17:43.231Z,98011.56
2024-02-08T19:20:20.056Z,98019.81
2024-02-08T19:22:49.354Z,98026.09
2024-02-08T19:25:22.902Z,98031.41
2024-02-08T19:27:51.000Z,98011.81
2024-02-08T19:30:18.251Z,98027.63
2024-02-08T19:32:47.258Z,98026.50
2024-02-08T19:35:21.390Z,98026.13
2024-02-08T19:37:51.380Z,98026.97
2024-02-08T19:40:22.750Z,98033.97
2024-02-08T19:42:50.865Z,98021.22
2024-02-08T19:45:24.502Z,98030.75
2024-02-08T19:47:55.057Z,98019.00
2024-02-08T19:50:22.784Z,98022.84
2024-02-08T19:52:50.260Z,98026.22
2024-02-08T19:55:30.152Z,98026.84
2024-02-08T19:58:00.897Z,98015.88
2024-02-08T20:00:31.187Z,98014.34
2024-02-08T20:03:17.659Z,98021.31
2024-02-08T20:05:48.592Z,98022.38
2024-02-08T20:08:17.642Z,98019.84
2024-02-08T20:10:47.772Z,98034.06
2024-02-08T20:13:19.412Z,98027.00
2024-02-08T20:15:49.151Z,98029.22
2024-02-08T20:18:22.191Z,98027.66
2024-02-08T20:20:49.401Z,98026.53
2024-02-08T20:23:33.533Z,98021.59
2024-02-08T20:26:02.104Z,98020.88
2024-02-08T20:28:32.824Z,98026.41
2024-02-08T20:31:00.154Z,98024.44
2024-02-08T20:33:29.505Z,98026.25
2024-02-08T20:36:02.209Z,98029.78
2024-02-08T20:38:32.239Z,98030.19
2024-02-08T20:40:59.269Z,98028.66
2024-02-08T20:43:27.760Z,98034.59
2024-02-08T20:45:55.820Z,98041.13
2024-02-08T20:48:23.363Z,98044.28
2024-02-08T20:50:52.251Z,98048.25
2024-02-08T20:53:19.477Z,98046.69
2024-02-08T20:55:49.210Z,98036.25
2024-02-08T20:58:18.443Z,98039.22
2024-02-08T21:00:48.019Z,98033.16
2024-02-08T21:03:17.512Z,98032.56
2024-02-08T21:05:50.255Z,98028.28
2024-02-08T21:08:19.085Z,98024.16
2024-02-08T21:10:49.487Z,98029.50
2024-02-08T21:13:20.838Z,98028.34
2024-02-08T21:15:50.983Z,98031.13
2024-02-08T21:18:21.816Z,98031.50
2024-02-08T21:20:54.283Z,98037.03
2024-02-08T21:23:26.102Z,98042.97
2024-02-08T21:25:54.555Z,98035.69
2024-02-08T21:28:23.650Z,98043.75
2024-02-08T21:30:51.201Z,98042.56
2024-02-08T21:33:18.630Z,98046.50
2024-02-08T21:35:48.745Z,98040.22
2024-02-08T21:38:17.493Z,98037.47
2024-02-08T21:40:47.569Z,98030.56
2024-02-08T21:43:17.608Z,98026.84
2024-02-08T21:45:47.514Z,98026.69
2024-02-08T21:48:18.098Z,98032.75
2024-02-08T21:50:50.269Z,98039.44
2024-02-08T21:53:18.038Z,98039.81
2024-02-08T21:55:46.838Z,98034.91
2024-02-08T21:58:14.312Z,98031.56
2024-02-08T22:00:43.603Z,98028.44
2024-02-08T22:03:10.574Z,98024.91
2024-02-08T22:05:38.095Z,98028.25
2024-02-08T22:08:06.195Z,98020.19
2024-02-08T22:10:35.894Z,98021.75
2024-02-08T22:13:09.241Z,98019.59
2024-02-08T22:15:36.630Z,98015.47
2024-02-08T22:18:04.233Z,98012.72
2024-02-08T22:20:31.822Z,98002.53
2024-02-08T22:22:59.999Z,98012.91
2024-02-08T22:25:27.281Z,98005.28
2024-02-08T22:27:56.034Z,98008.03
2024-02-08T22:30:24.684Z,98001.53
2024-02-08T22:32:53.794Z,97999.75
2024-02-08T22:35:21.098Z,97995.59
2024-02-08T22:37:50.160Z,98008.34
2024-02-08T22:40:20.181Z,98002.06
2024-02-08T22:42:47.695Z,98003.25
2024-02-08T22:45:15.133Z,98008.34
2024-02-08T22:47:44.928Z,98011.09
2024-02-08T22:50:13.693Z,98007.78
2024-02-08T22:52:41.840Z,98011.28
2024-02-08T22:55:12.381Z,98005.00
2024-02-08T22:57:40.148Z,97996.53
2024-02-08T23:00:27.070Z,97994.56
2024-02-08T23:02:57.837Z,97989.84
2024-02-08T23:05:32.110Z,97995.88
2024-02-08T23:08:00.490Z,98002.34
2024-02-08T23:10:29.980Z,98005.84
2024-02-08T23:12:57.554Z,98000.31
2024-02-08T23:15:26.731Z,97991.28
2024-02-08T23:17:56.886Z,97988.56
2024-02-08T23:20:25.766Z,97988.56
2024-02-08T23:22:54.581Z,97992.66
2024-02-08T23:25:24.866Z,97988.78
2024-02-08T23:27:52.135Z,97978.41
2024-02-08T23:30:20.375Z,97984.25
2024-02-08T23:32:53.952Z,97975.25
2024-02-08T23:35:23.715Z,97973.50
2024-02-08T23:37:57.016Z,97968.97
2024-02-08T23:40:27.882Z,97962.13
2024-02-08T23:42:57.170Z,97965.06
2024-02-08T23:45:24.230Z,97970.94
2024-02-08T23:47:51.594Z,97975.25
2024-02-08T23:50:18.952Z,97965.47
2024-02-08T23:52:46.937Z,97965.47
2024-02-08T23:55:15.541Z,97955.28
2024-02-08T23:57:42.656Z,97959.16
